Time;durP1;ratioP1;P1;durP2;ratioP2;P2;SDS_P1;SDS_P2;PMS_P1;PMS_P2;Temp;Humidity;BMP_temperature;BMP_pressure;BME280_temperature;BME280_humidity;BME280_pressure;Samples;Min_cycle;Max_cycle;Signal;HPM_P1;HPM_P2
2022/09/02 00:00:51;;;;;;;5.12;1.95;;;;;;;8.35;96.95;100475.75;1658846;86;21113;-68
2022/09/02 00:03:18;;;;;;;3.08;1.92;;;;;;;8.36;97.33;100480.13;1658483;85;21127;-67
2022/09/02 00:05:45;;;;;;;4.00;1.60;;;;;;;8.39;97.23;100482.21;1658846;86;21145;-67
2022/09/02 00:08:12;;;;;;;3.20;1.80;;;;;;;8.34;97.00;100483.23;1658603;86;21293;-68
2022/09/02 00:10:41;;;;;;;3.83;1.60;;;;;;;8.33;96.83;100489.39;1659487;84;21077;-68
2022/09/02 00:13:10;;;;;;;3.70;2.05;;;;;;;8.32;96.52;100490.27;1668537;86;21652;-68
2022/09/02 00:15:37;;;;;;;4.67;2.20;;;;;;;8.29;96.75;100490.34;1668516;86;21066;-69
2022/09/02 00:18:05;;;;;;;2.90;2.08;;;;;;;8.26;96.31;100486.45;1668369;86;21022;-68
2022/09/02 00:20:32;;;;;;;4.05;2.27;;;;;;;8.22;96.77;100492.23;1668489;86;21177;-66
2022/09/02 00:25:08;;;;;;;7.35;2.35;;;;;;;8.15;96.53;100491.50;1814212;79;28701;-68
2022/09/02 00:27:36;;;;;;;3.90;2.25;;;;;;;8.08;96.56;100495.15;1787414;80;21053;-67
2022/09/02 00:30:05;;;;;;;3.45;2.17;;;;;;;8.04;97.24;100492.62;1787489;80;21127;-67
2022/09/02 00:32:31;;;;;;;3.17;1.98;;;;;;;8.02;97.70;100495.27;1787252;80;21028;-68
2022/09/02 00:34:58;;;;;;;4.12;2.17;;;;;;;7.98;98.02;100492.28;1787198;80;21029;-68
2022/09/02 00:37:25;;;;;;;3.67;1.70;;;;;;;7.97;98.46;100491.88;1787387;80;21037;-68
2022/09/02 00:39:53;;;;;;;2.75;2.20;;;;;;;7.95;97.69;100497.15;1787334;80;21628;-68
2022/09/02 00:42:20;;;;;;;3.22;2.35;;;;;;;7.92;97.49;100495.05;1787364;80;21282;-68
2022/09/02 00:44:48;;;;;;;3.20;2.02;;;;;;;7.90;98.15;100503.40;1787168;80;21024;-68
2022/09/02 00:47:15;;;;;;;3.20;1.90;;;;;;;7.89;98.97;100492.47;1787730;80;21053;-68
2022/09/02 00:49:48;;;;;;;2.77;1.92;;;;;;;7.89;99.27;100500.34;1787098;80;21021;-68
2022/09/02 00:52:29;;;;;;;6.28;2.10;;;;;;;7.84;99.20;100502.20;1786955;80;21080;-69
2022/09/02 00:55:03;;;;;;;3.80;1.82;;;;;;;7.80;99.65;100500.52;1766136;80;21119;-68
2022/09/02 00:57:34;;;;;;;3.02;2.00;;;;;;;7.78;99.62;100510.61;1740156;81;21031;-67
2022/09/02 01:00:16;;;;;;;3.25;2.00;;;;;;;7.76;100.00;100513.70;1726177;83;21064;-68
2022/09/02 01:02:49;;;;;;;3.83;2.10;;;;;;;7.76;100.00;100511.53;1726002;81;21548;-68
2022/09/02 01:05:17;;;;;;;3.22;2.20;;;;;;;7.74;100.00;100516.80;1726270;83;21024;-68
2022/09/02 01:07:44;;;;;;;5.33;2.30;;;;;;;7.73;100.00;100514.20;1726107;83;21892;-68
2022/09/02 01:10:16;;;;;;;3.80;2.40;;;;;;;7.69;100.00;100516.03;1726037;83;21588;-69
2022/09/02 01:12:43;;;;;;;2.45;1.80;;;;;;;7.64;100.00;100511.33;1726188;83;21064;-67
2022/09/02 01:15:12;;;;;;;4.70;2.08;;;;;;;7.60;100.00;100516.20;1726155;83;21065;-68
2022/09/02 01:17:42;;;;;;;3.22;1.87;;;;;;;7.55;100.00;100519.36;1726518;83;21040;-68
2022/09/02 01:20:13;;;;;;;8.00;1.87;;;;;;;7.50;100.00;100517.24;1726355;83;21241;-67
2022/09/02 01:22:41;;;;;;;5.12;1.42;;;;;;;7.45;100.00;100524.33;1726359;83;21151;-69
2022/09/02 01:25:19;;;;;;;3.75;1.72;;;;;;;7.42;100.00;100530.49;1721649;83;21522;-67
2022/09/02 01:27:47;;;;;;;4.10;1.70;;;;;;;7.39;100.00;100525.32;1721112;83;21616;-67
2022/09/02 01:30:21;;;;;;;6.25;2.05;;;;;;;7.39;100.00;100527.08;1721029;83;21019;-67
2022/09/02 01:32:48;;;;;;;4.05;2.12;;;;;;;7.38;100.00;100533.20;1721144;83;22126;-67
2022/09/02 01:35:15;;;;;;;3.85;2.08;;;;;;;7.35;100.00;100537.59;1720946;83;21108;-68
2022/09/02 01:37:43;;;;;;;3.85;2.25;;;;;;;7.32;100.00;100533.73;1720685;83;21052;-67
2022/09/02 01:40:12;;;;;;;2.70;1.80;;;;;;;7.30;100.00;100535.96;1720539;83;21403;-69
2022/09/02 01:42:39;;;;;;;2.85;1.85;;;;;;;7.28;100.00;100546.45;1720751;83;21040;-67
2022/09/02 01:45:07;;;;;;;5.33;1.98;;;;;;;7.24;100.00;100550.01;1720579;83;21359;-68
2022/09/02 01:47:36;;;;;;;3.03;1.67;;;;;;;7.19;100.00;100550.98;1721172;83;22093;-68
2022/09/02 01:50:05;;;;;;;3.70;1.70;;;;;;;7.13;100.00;100555.86;1720931;83;21042;-67
2022/09/02 01:52:34;;;;;;;4.87;2.00;;;;;;;7.09;100.00;100557.69;1720638;83;21522;-67
2022/09/02 01:55:02;;;;;;;5.42;2.00;;;;;;;7.04;100.00;100557.32;1742533;82;22052;-67
2022/09/02 01:57:30;;;;;;;2.62;1.80;;;;;;;6.99;100.00;100557.84;1750634;81;21147;-67
2022/09/02 02:00:00;;;;;;;3.37;1.80;;;;;;;6.96;100.00;100557.90;1750535;82;21078;-68
2022/09/02 02:02:27;;;;;;;2.40;1.80;;;;;;;6.92;100.00;100561.00;1750776;80;21041;-67
2022/09/02 02:04:54;;;;;;;3.27;1.77;;;;;;;6.87;100.00;100571.54;1750681;82;21552;-67
2022/09/02 02:07:22;;;;;;;1.85;1.55;;;;;;;6.83;100.00;100567.26;1750742;82;21505;-68
2022/09/02 02:09:49;;;;;;;3.60;1.65;;;;;;;6.83;100.00;100575.11;1750925;82;21128;-67
2022/09/02 02:12:17;;;;;;;2.90;1.72;;;;;;;6.79;100.00;100570.80;1750587;82;21036;-66
2022/09/02 02:14:45;;;;;;;4.15;2.00;;;;;;;6.76;100.00;100579.98;1750866;82;21621;-68
2022/09/02 02:17:12;;;;;;;6.70;1.87;;;;;;;6.74;100.00;100580.48;1750637;82;21033;-68
2022/09/02 02:19:39;;;;;;;2.87;1.75;;;;;;;6.70;100.00;100573.09;1750853;82;21061;-68
2022/09/02 02:22:06;;;;;;;6.58;1.87;;;;;;;6.69;100.00;100579.66;1750571;82;21407;-68
2022/09/02 02:24:32;;;;;;;4.47;1.90;;;;;;;6.70;100.00;100584.02;1746310;82;21022;-68
2022/09/02 02:27:01;;;;;;;3.22;2.10;;;;;;;6.67;100.00;100582.73;1742569;82;21581;-67
2022/09/02 02:29:29;;;;;;;2.47;1.70;;;;;;;6.67;100.00;100586.66;1742493;82;21597;-67
2022/09/02 02:31:57;;;;;;;3.65;1.90;;;;;;;6.64;100.00;100584.09;1742485;82;21053;-68
2022/09/02 02:34:24;;;;;;;4.00;1.98;;;;;;;6.64;100.00;100590.19;1742490;82;21152;-67
2022/09/02 02:36:51;;;;;;;2.83;2.30;;;;;;;6.65;100.00;100585.84;1742772;82;21142;-67
2022/09/02 02:39:19;;;;;;;3.45;2.02;;;;;;;6.64;100.00;100584.09;1742433;82;21104;-67
2022/09/02 02:41:46;;;;;;;3.50;2.55;;;;;;;6.61;100.00;100584.14;1742549;82;21054;-67
2022/09/02 02:44:13;;;;;;;2.00;1.62;;;;;;;6.60;100.00;100589.83;1742662;82;21113;-68
2022/09/02 02:46:40;;;;;;;3.75;1.70;;;;;;;6.59;100.00;100585.91;1742816;82;21264;-69
2022/09/02 02:49:07;;;;;;;3.98;1.87;;;;;;;6.58;100.00;100584.16;1742584;82;21170;-68
2022/09/02 02:51:34;;;;;;;4.15;1.98;;;;;;;6.57;100.00;100583.76;1742542;82;21048;-68
2022/09/02 02:54:02;;;;;;;5.00;2.17;;;;;;;6.56;100.00;100589.89;1733296;82;21599;-68
2022/09/02 02:56:29;;;;;;;8.78;1.92;;;;;;;6.55;100.00;100592.06;1712980;82;21106;-66
2022/09/02 02:58:59;;;;;;;8.88;2.58;;;;;;;6.53;100.00;100589.91;1713218;82;21113;-68
2022/09/02 03:01:27;;;;;;;3.52;1.82;;;;;;;6.51;100.00;100586.89;1730567;80;21530;-68
2022/09/02 03:03:54;;;;;;;6.90;2.05;;;;;;;6.47;100.00;100589.56;1742492;82;21042;-69
2022/09/02 03:06:22;;;;;;;4.80;1.85;;;;;;;6.45;100.00;100593.50;1742849;82;21158;-68
2022/09/02 03:08:49;;;;;;;4.30;1.87;;;;;;;6.46;100.00;100593.91;1742415;82;21431;-70
2022/09/02 03:11:17;;;;;;;3.85;1.98;;;;;;;6.46;100.00;100593.05;1742409;82;21542;-69
2022/09/02 03:13:44;;;;;;;4.78;1.85;;;;;;;6.46;100.00;100601.75;1742509;82;21120;-68
2022/09/02 03:16:12;;;;;;;5.62;2.17;;;;;;;6.43;100.00;100599.19;1742671;82;21581;-68
2022/09/02 03:18:40;;;;;;;4.62;2.10;;;;;;;6.41;100.00;100598.34;1742576;82;21065;-69
2022/09/02 03:21:08;;;;;;;3.35;2.50;;;;;;;6.40;100.00;100600.55;1742981;82;21104;-68
2022/09/02 03:23:36;;;;;;;3.75;2.05;;;;;;;6.42;100.00;100602.70;1742533;82;21597;-68
2022/09/02 03:26:09;;;;;;;3.52;1.90;;;;;;;6.43;100.00;100603.11;1742725;82;21573;-68
2022/09/02 03:28:38;;;;;;;3.52;1.80;;;;;;;6.42;100.00;100615.78;1742690;82;21065;-68
2022/09/02 03:31:05;;;;;;;4.62;1.55;;;;;;;6.42;100.00;100615.78;1742663;82;21115;-69
2022/09/02 03:33:33;;;;;;;4.03;1.98;;;;;;;6.42;100.00;100611.86;1742627;82;21026;-69
2022/09/02 03:35:59;;;;;;;3.85;2.05;;;;;;;6.44;100.00;100615.33;1745692;82;21148;-68
2022/09/02 03:38:27;;;;;;;6.00;2.37;;;;;;;6.43;100.00;100627.97;1742491;82;21049;-68
2022/09/02 03:40:54;;;;;;;10.68;2.33;;;;;;;6.46;100.00;100628.37;1742836;82;21146;-67
2022/09/02 03:43:21;;;;;;;4.85;2.27;;;;;;;6.48;100.00;100627.46;1742588;82;21053;-67
2022/09/02 03:45:48;;;;;;;4.42;2.05;;;;;;;6.50;100.00;100630.92;1742771;82;21073;-68
2022/09/02 03:48:15;;;;;;;6.50;2.35;;;;;;;6.56;100.00;100639.61;1742489;82;21268;-69
2022/09/02 03:50:45;;;;;;;4.92;1.87;;;;;;;6.61;100.00;100641.72;1742345;82;21085;-68
2022/09/02 03:53:14;;;;;;;4.10;1.95;;;;;;;6.69;100.00;100651.22;1742626;82;21053;-68
2022/09/02 03:55:41;;;;;;;2.35;1.80;;;;;;;7.03;100.00;100654.67;1713290;82;21044;-67
2022/09/02 03:58:08;;;;;;;4.42;2.20;;;;;;;7.62;100.00;100655.97;1712960;83;21632;-69
2022/09/02 04:00:36;;;;;;;3.87;2.12;;;;;;;8.29;100.00;100650.41;1712949;82;21246;-68
2022/09/02 04:03:04;;;;;;;5.15;2.10;;;;;;;8.97;100.00;100652.52;1712752;82;21044;-68
2022/09/02 04:05:31;;;;;;;5.25;1.95;;;;;;;9.66;100.00;100653.53;1712884;83;21543;-70
2022/09/02 04:07:59;;;;;;;4.17;2.12;;;;;;;10.28;100.00;100649.77;1712727;83;21080;-69
2022/09/02 04:10:26;;;;;;;5.58;2.00;;;;;;;10.85;100.00;100644.16;1712826;82;21040;-68
2022/09/02 04:12:54;;;;;;;11.33;2.00;;;;;;;11.35;97.96;100654.07;1713300;83;21740;-68
2022/09/02 04:15:21;;;;;;;4.55;2.15;;;;;;;11.89;94.11;100652.33;1726918;82;21059;-69
2022/09/02 04:17:49;;;;;;;11.93;2.00;;;;;;;12.43;91.39;100650.45;1713055;83;21040;-68
2022/09/02 04:20:16;;;;;;;4.20;2.17;;;;;;;12.97;87.92;100658.06;1712942;83;21099;-70
2022/09/02 04:22:44;;;;;;;7.87;2.62;;;;;;;13.46;85.09;100657.97;1712832;83;21063;-69
2022/09/02 04:25:11;;;;;;;9.25;1.70;;;;;;;13.89;82.26;100657.50;1716642;82;21908;-69
2022/09/02 04:27:37;;;;;;;6.72;2.10;;;;;;;14.26;80.03;100658.12;1720452;83;21071;-68
2022/09/02 04:30:07;;;;;;;3.85;1.62;;;;;;;14.67;77.76;100657.21;1720469;82;21596;-68
2022/09/02 04:32:35;;;;;;;6.53;1.92;;;;;;;14.96;75.54;100660.33;1720522;83;21027;-69
2022/09/02 04:35:03;;;;;;;3.87;1.70;;;;;;;15.22;74.83;100662.58;1721079;83;21042;-68
2022/09/02 04:37:32;;;;;;;8.98;2.30;;;;;;;15.64;73.56;100661.42;1720744;83;21246;-70
2022/09/02 04:39:59;;;;;;;6.47;2.08;;;;;;;16.14;71.33;100666.01;1720659;83;21100;-69
2022/09/02 04:42:26;;;;;;;11.70;2.10;;;;;;;16.54;70.43;100655.95;1720658;82;21092;-69
2022/09/02 04:44:55;;;;;;;6.92;2.00;;;;;;;16.98;68.29;100660.69;1720615;82;21610;-70
2022/09/02 04:47:23;;;;;;;15.65;2.35;;;;;;;17.36;66.64;100659.00;1720895;82;21039;-68
2022/09/02 04:49:50;;;;;;;6.37;2.17;;;;;;;17.80;66.03;100656.89;1721023;83;21092;-69
2022/09/02 04:52:19;;;;;;;12.37;2.50;;;;;;;18.30;61.22;100659.34;1720577;83;21051;-70
2022/09/02 04:54:46;;;;;;;9.50;2.60;;;;;;;18.67;59.74;100655.26;1739469;82;21044;-70
2022/09/02 04:57:13;;;;;;;9.65;2.30;;;;;;;18.93;57.48;100658.97;1750587;80;22069;-69
2022/09/02 04:59:40;;;;;;;8.83;2.67;;;;;;;19.16;52.74;100661.50;1750361;82;21041;-71
2022/09/02 05:02:09;;;;;;;9.00;3.10;;;;;;;19.40;52.14;100666.23;1750481;80;21087;-70
2022/09/02 05:04:36;;;;;;;7.17;3.85;;;;;;;19.67;51.36;100660.89;1750559;82;21041;-69
2022/09/02 05:07:04;;;;;;;8.48;4.33;;;;;;;20.01;50.58;100662.64;1750448;82;21025;-68
2022/09/02 05:09:33;;;;;;;11.00;5.50;;;;;;;20.39;49.76;100661.83;1750386;82;21573;-69
2022/09/02 05:12:03;;;;;;;15.78;7.20;;;;;;;20.87;48.48;100658.88;1750777;82;21033;-69
2022/09/02 05:14:31;;;;;;;16.05;8.28;;;;;;;21.25;47.35;100666.42;1749227;82;21954;-68
2022/09/02 05:17:00;;;;;;;17.90;8.85;;;;;;;21.46;46.69;100662.19;1714588;83;21637;-69
2022/09/02 05:19:28;;;;;;;24.77;13.43;;;;;;;21.57;46.26;100658.72;1714543;83;21125;-68
2022/09/02 05:21:57;;;;;;;28.52;17.48;;;;;;;21.92;45.72;100658.73;1750547;81;21025;-69
2022/09/02 05:24:25;;;;;;;44.35;25.68;;;;;;;22.20;45.72;100657.48;1749954;82;20981;-67
2022/09/02 05:26:53;;;;;;;50.33;29.25;;;;;;;22.35;45.92;100655.45;1742587;82;21250;-70
2022/09/02 05:29:19;;;;;;;49.98;27.90;;;;;;;22.62;45.51;100659.14;1742477;82;21042;-70
2022/09/02 05:31:47;;;;;;;63.10;34.90;;;;;;;22.86;44.92;100661.33;1742855;82;21061;-68
2022/09/02 05:34:15;;;;;;;99.52;52.58;;;;;;;23.13;44.84;100669.88;1742455;82;21586;-68
2022/09/02 05:36:44;;;;;;;100.07;56.10;;;;;;;23.45;44.65;100662.36;1742618;82;21069;-68
2022/09/02 05:39:11;;;;;;;105.95;60.17;;;;;;;23.71;44.56;100669.59;1742694;82;21141;-68
2022/09/02 05:41:38;;;;;;;102.80;57.17;;;;;;;23.98;43.60;100663.76;1742814;82;21037;-69
2022/09/02 05:44:05;;;;;;;108.87;57.10;;;;;;;24.19;42.77;100667.80;1742553;82;21046;-70
2022/09/02 05:46:33;;;;;;;101.58;58.78;;;;;;;24.38;42.63;100667.55;1743106;82;21058;-68
2022/09/02 05:49:07;;;;;;;116.12;61.23;;;;;;;24.63;42.21;100668.99;1742749;82;21033;-68
2022/09/02 05:51:49;;;;;;;99.03;50.92;;;;;;;24.92;41.74;100669.12;1742333;82;21139;-71
2022/09/02 05:54:27;;;;;;;105.22;57.08;;;;;;;25.17;41.34;100670.48;1730137;82;21078;-69
2022/09/02 05:56:58;;;;;;;99.25;56.90;;;;;;;25.44;40.64;100667.63;1713273;83;21058;-70
2022/09/02 05:59:26;;;;;;;114.20;57.70;;;;;;;25.78;40.12;100667.23;1712782;83;21111;-69
2022/09/02 06:01:55;;;;;;;89.67;50.35;;;;;;;25.87;38.80;100670.46;1713221;83;21056;-69
2022/09/02 06:04:22;;;;;;;104.97;57.98;;;;;;;25.82;39.14;100669.50;1712790;83;21208;-70
2022/09/02 06:06:49;;;;;;;70.87;41.02;;;;;;;26.05;38.64;100670.59;1712825;83;21111;-69
2022/09/02 06:09:20;;;;;;;82.25;45.85;;;;;;;26.32;37.83;100667.14;1713041;83;21509;-69
2022/09/02 06:11:48;;;;;;;73.65;41.13;;;;;;;26.62;36.61;100667.91;1713423;83;21043;-69
2022/09/02 06:14:21;;;;;;;66.55;36.05;;;;;;;26.80;36.15;100666.12;1713092;82;21075;-69
2022/09/02 06:16:52;;;;;;;73.85;43.75;;;;;;;26.94;35.05;100672.41;1713285;82;21612;-70
2022/09/02 06:19:24;;;;;;;80.30;46.15;;;;;;;27.02;35.40;100669.46;1713356;82;21492;-70
2022/09/02 06:21:53;;;;;;;78.52;42.80;;;;;;;27.15;35.47;100669.45;1713109;82;21134;-68
2022/09/02 06:24:22;;;;;;;73.10;42.33;;;;;;;27.39;35.27;100668.89;1713212;82;21055;-71
2022/09/02 06:26:49;;;;;;;70.08;41.50;;;;;;;27.62;34.79;100679.27;1727074;82;21051;-68
2022/09/02 06:29:16;;;;;;;73.28;40.20;;;;;;;27.88;33.52;100679.88;1712961;82;21134;-70
2022/09/02 06:31:44;;;;;;;64.92;37.42;;;;;;;27.80;33.29;100690.09;1712916;82;21043;-70
2022/09/02 06:34:12;;;;;;;57.43;31.25;;;;;;;27.87;33.27;100691.72;1713140;83;21246;-69
2022/09/02 06:36:41;;;;;;;63.87;34.83;;;;;;;28.17;32.31;100687.22;1713392;83;21047;-68
2022/09/02 06:39:11;;;;;;;51.30;29.75;;;;;;;28.26;31.96;100688.66;1713122;82;21048;-69
2022/09/02 06:41:40;;;;;;;49.03;29.52;;;;;;;28.39;31.63;100683.64;1727277;82;21225;-68
2022/09/02 06:44:10;;;;;;;51.98;28.00;;;;;;;28.42;30.02;100677.92;1713295;83;21099;-69
2022/09/02 06:46:45;;;;;;;50.40;29.10;;;;;;;28.39;30.57;100681.80;1713299;83;21253;-71
2022/09/02 06:49:15;;;;;;;53.15;28.73;;;;;;;28.57;30.72;100684.46;1713077;83;21083;-68
2022/09/02 06:51:45;;;;;;;52.98;27.82;;;;;;;28.48;30.72;100686.78;1713154;83;21124;-69
2022/09/02 06:54:15;;;;;;;39.38;22.50;;;;;;;28.46;30.10;100690.15;1724397;82;21176;-70
2022/09/02 06:56:43;;;;;;;28.50;17.65;;;;;;;28.47;30.13;100689.16;1742537;82;21100;-69
2022/09/02 06:59:10;;;;;;;31.77;16.02;;;;;;;28.58;29.37;100696.17;1742772;81;21054;-70
2022/09/02 07:01:39;;;;;;;26.82;13.48;;;;;;;28.81;29.30;100695.11;1738607;82;21041;-70
2022/09/02 07:06:55;;;;;;;24.47;14.47;;;;;;;29.38;27.75;100689.94;1742687;82;21780;-69
2022/09/02 07:09:29;;;;;;;30.30;15.93;;;;;;;29.65;27.49;100695.57;1742583;82;20994;-70
2022/09/02 07:12:00;;;;;;;25.08;13.88;;;;;;;29.86;27.21;100695.14;1742614;82;21069;-70
2022/09/02 07:14:29;;;;;;;28.98;15.05;;;;;;;29.75;25.21;100699.54;1742940;82;21763;-69
2022/09/02 07:16:59;;;;;;;27.80;15.30;;;;;;;29.64;26.65;100706.61;1742855;82;21025;-70
2022/09/02 07:19:27;;;;;;;31.20;16.35;;;;;;;29.74;26.19;100696.98;1741928;82;21216;-68
2022/09/02 07:21:54;;;;;;;21.07;12.88;;;;;;;29.71;26.32;100704.95;1742546;82;21085;-70
2022/09/02 07:24:22;;;;;;;21.33;12.47;;;;;;;29.67;25.79;100707.63;1742369;82;21045;-69
2022/09/02 07:26:49;;;;;;;19.32;11.63;;;;;;;29.82;25.21;100706.51;1720247;82;21057;-70
2022/09/02 07:29:17;;;;;;;25.60;13.25;;;;;;;29.97;24.66;100706.16;1712436;83;21061;-69
2022/09/02 07:31:45;;;;;;;26.15;12.70;;;;;;;30.18;24.65;100708.35;1712690;83;21386;-70
2022/09/02 07:34:13;;;;;;;25.95;13.03;;;;;;;30.23;24.35;100697.85;1712667;83;21132;-68
2022/09/02 07:36:41;;;;;;;25.50;13.58;;;;;;;30.42;24.73;100706.17;1712798;83;21109;-70
2022/09/02 07:39:10;;;;;;;20.32;11.68;;;;;;;30.38;24.26;100698.53;1712511;83;22330;-72
2022/09/02 07:41:37;;;;;;;18.73;11.12;;;;;;;30.07;24.16;100710.05;1712698;83;21064;-71
2022/09/02 07:44:04;;;;;;;18.37;10.38;;;;;;;30.22;24.40;100704.28;1712564;83;21873;-70
2022/09/02 07:46:33;;;;;;;14.35;9.25;;;;;;;30.21;23.01;100698.53;1712478;83;21121;-69
2022/09/02 07:49:00;;;;;;;22.13;9.75;;;;;;;30.05;23.20;100708.05;1712523;83;21169;-70
2022/09/02 07:51:27;;;;;;;15.70;9.78;;;;;;;29.97;23.20;100705.31;1712396;83;21077;-70
2022/09/02 07:53:53;;;;;;;18.30;9.95;;;;;;;29.72;23.90;100708.00;1708434;83;21016;-69
2022/09/02 07:56:20;;;;;;;18.57;10.10;;;;;;;29.48;23.64;100707.42;1695826;83;21284;-69
2022/09/02 07:58:47;;;;;;;18.35;10.32;;;;;;;29.39;24.15;100711.97;1696086;84;21075;-70
2022/09/02 08:01:13;;;;;;;16.40;9.45;;;;;;;29.60;24.21;100705.24;1695959;84;21075;-69
2022/09/02 08:03:43;;;;;;;13.93;8.93;;;;;;;29.78;23.57;100705.98;1696003;84;22123;-69
2022/09/02 08:06:12;;;;;;;17.15;9.25;;;;;;;29.43;23.56;100701.14;1667799;84;21079;-69
2022/09/02 08:08:41;;;;;;;15.48;8.20;;;;;;;29.14;23.66;100696.12;1696054;84;21122;-69
2022/09/02 08:11:07;;;;;;;16.67;9.93;;;;;;;28.18;24.22;100706.54;1695861;84;21052;-69
2022/09/02 08:13:35;;;;;;;18.62;10.32;;;;;;;27.12;25.51;100710.80;1696170;84;21112;-69
2022/09/02 08:16:03;;;;;;;18.77;10.48;;;;;;;26.64;26.93;100705.95;1696025;84;21047;-70
2022/09/02 08:18:30;;;;;;;18.60;9.45;;;;;;;26.68;27.62;100701.09;1695938;84;21040;-71
2022/09/02 08:20:56;;;;;;;16.05;8.88;;;;;;;26.88;27.33;100698.67;1695876;84;21272;-69
2022/09/02 08:23:23;;;;;;;16.55;8.65;;;;;;;27.26;27.37;100696.80;1695904;84;21059;-70
2022/09/02 08:25:49;;;;;;;12.65;7.75;;;;;;;27.80;25.97;100704.48;1676934;82;21611;-69
2022/09/02 08:28:16;;;;;;;14.03;6.70;;;;;;;28.18;25.24;100694.36;1742998;82;21606;-69
2022/09/02 08:30:42;;;;;;;12.45;5.40;;;;;;;27.91;24.51;100698.53;1742867;82;21615;-70
2022/09/02 08:33:09;;;;;;;15.03;6.45;;;;;;;27.23;25.29;100694.41;1743283;82;22003;-69
2022/09/02 08:35:36;;;;;;;7.58;4.58;;;;;;;26.75;26.53;100696.30;1742902;82;21524;-69
2022/09/02 08:38:03;;;;;;;9.08;3.20;;;;;;;26.35;26.30;100699.24;1714882;82;21008;-68
2022/09/02 08:40:36;;;;;;;6.45;3.45;;;;;;;25.82;25.01;100696.98;1743460;82;21023;-71
2022/09/02 08:43:08;;;;;;;8.45;3.10;;;;;;;25.26;26.38;100702.02;1748354;80;21600;-69
2022/09/02 08:45:38;;;;;;;9.13;2.33;;;;;;;24.97;27.24;100705.08;1749578;82;21098;-70
2022/09/02 08:48:21;;;;;;;14.20;2.75;;;;;;;24.75;26.72;100701.56;1750656;82;21032;-70
2022/09/02 08:50:49;;;;;;;4.55;2.35;;;;;;;24.40;26.79;100704.11;1750717;80;21655;-70
2022/09/02 08:53:30;;;;;;;5.08;2.20;;;;;;;24.57;26.63;100703.17;1750759;82;21072;-70
2022/09/02 08:55:58;;;;;;;;;;;;;;;25.02;26.08;100699.62;1705913;83;21605;-70
2022/09/02 08:58:28;;;;;;;3.40;1.70;;;;;;;25.21;25.90;100693.47;1720916;83;21821;-70
2022/09/02 09:01:19;;;;;;;4.42;1.87;;;;;;;25.42;25.01;100693.88;1720896;83;21040;-70
2022/09/02 09:04:03;;;;;;;5.60;2.30;;;;;;;25.65;25.03;100687.27;1720701;83;21089;-70
2022/09/02 09:06:54;;;;;;;5.22;1.67;;;;;;;25.74;24.67;100689.58;1721031;83;21186;-71
2022/09/02 09:09:50;;;;;;;;;;;;;;;25.57;24.70;100687.59;1723557;83;21079;-69
2022/09/02 09:13:13;;;;;;;4.28;1.55;;;;;;;25.40;24.72;100690.47;1720921;83;21129;-70
2022/09/02 09:16:12;;;;;;;2.62;1.37;;;;;;;25.52;25.35;100692.06;1720679;83;21040;-69
2022/09/02 09:18:43;;;;;;;5.97;1.60;;;;;;;26.16;25.59;100683.43;1720690;83;21024;-72
2022/09/02 09:21:09;;;;;;;8.23;1.30;;;;;;;26.82;23.61;100674.94;1719219;83;28161;-69
2022/09/02 09:23:38;;;;;;;4.30;1.22;;;;;;;27.24;22.61;100676.32;1720864;83;22275;-70
2022/09/02 09:26:12;;;;;;;3.70;1.20;;;;;;;27.52;22.07;100681.21;1719611;83;21224;-69
2022/09/02 09:28:47;;;;;;;2.55;1.30;;;;;;;27.50;22.43;100684.56;1713025;83;21045;-70
2022/09/02 09:31:17;;;;;;;3.17;1.75;;;;;;;27.61;22.20;100682.48;1712834;83;21065;-69
2022/09/02 09:34:08;;;;;;;2.70;1.27;;;;;;;27.86;22.59;100681.41;1712937;83;21194;-70
2022/09/02 09:36:44;;;;;;;4.65;1.25;;;;;;;27.99;22.68;100680.48;1712637;83;21136;-69
2022/09/02 09:39:29;;;;;;;7.05;1.50;;;;;;;28.18;21.64;100684.87;1712816;83;21794;-70
2022/09/02 09:42:04;;;;;;;1.35;1.07;;;;;;;28.19;21.81;100682.50;1712630;83;21100;-70
2022/09/02 09:44:45;;;;;;;3.20;1.05;;;;;;;28.19;21.05;100678.44;1712788;83;21073;-70
2022/09/02 09:47:21;;;;;;;2.30;1.07;;;;;;;28.19;20.81;100671.67;1712929;83;21202;-72
2022/09/02 09:49:50;;;;;;;2.90;1.50;;;;;;;28.13;20.45;100673.64;1712628;82;21075;-71
2022/09/02 09:52:29;;;;;;;3.98;1.90;;;;;;;28.00;20.38;100681.35;1712939;83;21113;-68
2022/09/02 09:55:18;;;;;;;6.25;1.67;;;;;;;27.84;21.66;100684.77;1712621;82;21076;-70
2022/09/02 09:57:48;;;;;;;3.60;2.00;;;;;;;27.90;21.97;100683.28;1712997;83;21099;-69
2022/09/02 10:00:31;;;;;;;4.28;2.20;;;;;;;28.14;21.32;100671.30;1712772;83;21615;-72
2022/09/02 10:03:03;;;;;;;3.17;2.20;;;;;;;28.29;20.37;100677.48;1713207;83;20993;-69
2022/09/02 10:05:38;;;;;;;6.30;2.45;;;;;;;28.27;20.56;100679.50;1712688;82;21226;-70
2022/09/02 10:08:20;;;;;;;4.28;2.67;;;;;;;28.21;20.68;100675.08;1713254;83;21052;-70
2022/09/02 10:11:02;;;;;;;7.28;2.72;;;;;;;28.22;20.75;100680.82;1713128;83;21048;-69
2022/09/02 10:13:34;;;;;;;4.28;2.83;;;;;;;28.27;21.22;100684.92;1713241;82;21026;-70
2022/09/02 10:16:32;;;;;;;4.08;2.80;;;;;;;28.44;20.80;100677.27;1713053;82;21583;-69
2022/09/02 10:19:22;;;;;;;9.05;4.12;;;;;;;28.55;20.30;100670.25;1713300;82;21505;-69
2022/09/02 10:22:31;;;;;;;7.90;3.90;;;;;;;28.64;20.63;100680.13;1712995;82;21145;-69
2022/09/02 10:25:20;;;;;;;7.75;4.00;;;;;;;28.89;20.90;100680.23;1712609;82;21047;-71
2022/09/02 10:28:15;;;;;;;8.20;4.28;;;;;;;29.07;20.13;100681.02;1712844;82;21071;-70
2022/09/02 10:30:57;;;;;;;12.53;4.05;;;;;;;29.03;21.15;100676.92;1713061;83;21127;-69
2022/09/02 10:33:35;;;;;;;6.92;4.00;;;;;;;29.04;19.95;100675.89;1713218;83;21103;-69
2022/09/02 10:36:16;;;;;;;7.85;4.50;;;;;;;28.75;20.24;100669.49;1712240;82;21075;-71
2022/09/02 10:38:46;;;;;;;7.72;4.20;;;;;;;28.81;20.31;100671.56;1713131;83;21049;-69
2022/09/02 10:41:33;;;;;;;22.10;5.50;;;;;;;28.97;20.86;100680.28;1713090;82;21067;-71
2022/09/02 10:44:29;;;;;;;16.80;5.00;;;;;;;28.88;20.79;100674.48;1713361;83;21028;-70
2022/09/02 10:47:05;;;;;;;11.97;4.72;;;;;;;28.74;21.10;100676.45;1713077;83;21519;-70
2022/09/02 10:50:02;;;;;;;9.63;4.53;;;;;;;28.96;19.99;100676.36;1712827;83;21087;-70
2022/09/02 10:52:50;;;;;;;9.90;4.62;;;;;;;28.98;19.51;100676.54;1694484;82;21039;-69
2022/09/02 10:55:49;;;;;;;8.35;4.65;;;;;;;28.45;19.92;100683.02;1737228;81;21048;-70
2022/09/02 10:58:37;;;;;;;9.95;5.35;;;;;;;28.19;21.06;100678.44;1742431;82;21057;-70
2022/09/02 11:01:06;;;;;;;7.42;4.60;;;;;;;28.30;20.65;100665.64;1742527;82;21139;-70
2022/09/02 11:03:51;;;;;;;10.35;4.55;;;;;;;28.18;20.27;100674.52;1742464;82;21549;-70
2022/09/02 11:06:25;;;;;;;7.87;5.00;;;;;;;28.05;20.76;100670.89;1693388;84;21026;-71
2022/09/02 11:09:01;;;;;;;10.08;5.12;;;;;;;28.06;20.66;100666.32;1706819;84;21078;-69
2022/09/02 11:11:54;;;;;;;9.58;5.10;;;;;;;27.98;20.80;100667.96;1706781;84;21117;-70
2022/09/02 11:14:34;;;;;;;9.55;5.67;;;;;;;27.49;21.66;100677.44;1707025;84;21512;-69
2022/09/02 11:17:06;;;;;;;10.75;5.40;;;;;;;27.33;21.73;100678.98;1706914;84;21046;-70
2022/09/02 11:19:47;;;;;;;11.48;5.28;;;;;;;27.31;21.34;100669.30;1706797;84;21132;-70
2022/09/02 11:22:46;;;;;;;10.38;5.20;;;;;;;27.04;21.28;100664.76;1742403;82;21029;-70
2022/09/02 11:25:21;;;;;;;12.73;6.20;;;;;;;27.03;21.73;100661.69;1742092;82;21401;-68
2022/09/02 11:28:02;;;;;;;9.58;5.80;;;;;;;27.20;22.61;100667.68;1742720;82;21090;-70
2022/09/02 11:30:41;;;;;;;9.15;6.10;;;;;;;27.20;21.89;100675.28;1696241;82;21158;-70
2022/09/02 11:33:22;;;;;;;11.50;6.37;;;;;;;27.26;21.96;100677.87;1738886;82;21037;-69
2022/09/02 11:35:49;;;;;;;14.25;6.90;;;;;;;27.39;21.38;100663.48;1742306;82;21060;-70
2022/09/02 11:38:43;;;;;;;15.10;6.47;;;;;;;27.40;21.61;100664.33;1706861;83;21081;-69
2022/09/02 11:41:34;;;;;;;13.83;7.40;;;;;;;27.16;21.55;100663.54;1742684;82;21221;-71
2022/09/02 11:44:45;;;;;;;14.28;6.62;;;;;;;26.76;21.99;100660.70;1742952;82;21109;-70
2022/09/02 11:47:32;;;;;;;12.33;6.40;;;;;;;26.90;22.31;100671.00;1743117;82;21025;-70